createdAt,value
2023-04-20T00:00:34.329Z,100298.81
2023-04-20T00:03:02.200Z,100297.13
2023-04-20T00:05:30.934Z,100294.47
2023-04-20T00:07:58.889Z,100290.97
2023-04-20T00:10:26.519Z,100288.41
2023-04-20T00:12:54.193Z,100284.94
2023-04-20T00:15:21.818Z,100275.13
2023-04-20T00:17:50.146Z,100269.91
2023-04-20T00:20:19.853Z,100269.91
2023-04-20T00:22:47.514Z,100268.34
2023-04-20T00:25:15.226Z,100261.53
2023-04-20T00:27:42.994Z,100255.47
2023-04-20T00:30:10.981Z,100253.66
2023-04-20T00:32:39.136Z,100253.78
2023-04-20T00:35:06.962Z,100241.44
2023-04-20T00:37:34.629Z,100238.78
2023-04-20T00:40:02.396Z,100231.69
2023-04-20T00:42:30.833Z,100230.06
2023-04-20T00:44:58.413Z,100230.06
2023-04-20T00:47:26.329Z,100224.88
2023-04-20T00:49:54.049Z,100226.69
2023-04-20T00:52:21.739Z,100220.63
2023-04-20T00:54:49.763Z,100222.44
2023-04-20T00:57:17.857Z,100220.81
2023-04-20T00:59:45.518Z,100212.13
2023-04-20T01:02:13.175Z,100212.22
2023-04-20T01:04:41.539Z,100211.38
2023-04-20T01:07:09.537Z,100203.59
2023-04-20T01:09:37.574Z,100191.28
2023-04-20T01:12:05.256Z,100194.06
2023-04-20T01:14:32.866Z,100193.22
2023-04-20T01:17:00.487Z,100191.50
2023-04-20T01:19:28.661Z,100174.84
2023-04-20T01:21:56.299Z,100183.88
2023-04-20T01:24:23.869Z,100170.91
2023-04-20T01:26:51.969Z,100171.31
2023-04-20T01:29:19.727Z,100157.59
2023-04-20T01:31:47.836Z,100150.91
2023-04-20T01:34:15.501Z,100150.16
2023-04-20T01:36:43.092Z,100134.47
2023-04-20T01:39:10.715Z,100142.50
2023-04-20T01:41:38.381Z,100133.69
2023-04-20T01:44:06.333Z,100133.69
2023-04-20T01:46:34.117Z,100134.47
2023-04-20T01:49:02.195Z,100129.25
2023-04-20T01:51:29.815Z,100123.09
2023-04-20T01:53:57.461Z,100123.84
2023-04-20T01:56:25.351Z,100109.63
2023-04-20T01:58:52.984Z,100105.28
2023-04-20T02:01:20.715Z,100109.72
2023-04-20T02:03:49.742Z,100102.72
2023-04-20T02:06:17.660Z,100097.41
2023-04-20T02:08:45.518Z,100108.84
2023-04-20T02:11:23.908Z,100100.81
2023-04-20T02:13:51.757Z,100102.50
2023-04-20T02:16:21.917Z,100098.16
2023-04-20T02:18:49.948Z,100101.66
2023-04-20T02:21:17.598Z,100094.66
2023-04-20T02:23:45.224Z,100094.66
2023-04-20T02:26:12.902Z,100094.53
2023-04-20T02:28:40.661Z,100092.75
2023-04-20T02:31:08.731Z,100087.44
2023-04-20T02:33:36.616Z,100086.59
2023-04-20T02:36:04.260Z,100082.34
2023-04-20T02:38:32.166Z,100081.50
2023-04-20T02:40:59.866Z,100082.47
2023-04-20T02:43:27.887Z,100082.56
2023-04-20T02:45:55.528Z,100086.91
2023-04-20T02:48:23.384Z,100074.69
2023-04-20T02:50:50.994Z,100076.50
2023-04-20T02:53:18.626Z,100077.47
2023-04-20T02:55:46.926Z,100066.84
2023-04-20T02:58:14.598Z,100069.59
2023-04-20T03:00:42.236Z,100071.41
2023-04-20T03:03:10.049Z,100069.50
2023-04-20T03:05:37.781Z,100068.56
2023-04-20T03:08:07.797Z,100066.63
2023-04-20T03:10:35.745Z,100060.59
2023-04-20T03:13:03.652Z,100060.69
2023-04-20T03:15:31.305Z,100057.06
2023-04-20T03:17:59.518Z,100054.44
2023-04-20T03:20:27.828Z,100051.69
2023-04-20T03:22:55.471Z,100048.81
2023-04-20T03:25:23.365Z,100051.59
2023-04-20T03:27:51.003Z,100055.94
2023-04-20T03:30:18.691Z,100053.38
2023-04-20T03:32:46.936Z,100043.63
2023-04-20T03:35:14.610Z,100040.34
2023-04-20T03:37:42.424Z,100043.09
2023-04-20T03:40:10.588Z,100037.03
2023-04-20T03:42:38.593Z,100032.75
2023-04-20T03:45:06.842Z,100029.38
2023-04-20T03:47:34.613Z,100033.72
2023-04-20T03:50:02.279Z,100029.38
2023-04-20T03:52:29.979Z,100037.31
2023-04-20T03:54:57.654Z,100032.84
2023-04-20T03:57:25.609Z,100038.16
2023-04-20T03:59:53.265Z,100031.16
2023-04-20T04:02:22.883Z,100035.59
2023-04-20T04:04:50.784Z,100032.22
2023-04-20T04:07:18.521Z,100026.91
2023-04-20T04:09:46.614Z,100026.91
2023-04-20T04:12:14.245Z,100032.22
2023-04-20T04:14:41.900Z,100030.72
2023-04-20T04:17:09.718Z,100030.94
2023-04-20T04:19:37.468Z,100034.53
2023-04-20T04:22:05.426Z,100025.75
2023-04-20T04:24:33.545Z,100022.47
2023-04-20T04:27:02.356Z,100028.59
2023-04-20T04:29:30.100Z,100027.75
2023-04-20T04:31:58.666Z,100022.47
2023-04-20T04:34:30.319Z,100026.25
2023-04-20T04:36:58.115Z,100030.69
2023-04-20T04:39:26.044Z,100023.59
2023-04-20T04:41:53.757Z,100028.81
2023-04-20T04:44:21.458Z,100030.69
2023-04-20T04:46:49.983Z,100024.56
2023-04-20T04:49:18.076Z,100032.59
2023-04-20T04:51:46.016Z,100026.47
2023-04-20T04:54:13.711Z,100033.66
2023-04-20T04:56:41.545Z,100031.97
2023-04-20T04:59:09.652Z,100025.59
2023-04-20T05:01:37.578Z,100022.97
2023-04-20T05:04:05.702Z,100024.78
2023-04-20T05:06:34.001Z,100031.13
2023-04-20T05:09:02.408Z,100024.22
2023-04-20T05:11:30.213Z,100033.00
2023-04-20T05:13:57.950Z,100028.97
2023-04-20T05:16:26.008Z,100037.25
2023-04-20T05:18:53.973Z,100036.81
2023-04-20T05:21:21.674Z,100046.13
2023-04-20T05:23:50.028Z,100050.13
2023-04-20T05:26:17.750Z,100050.44
2023-04-20T05:28:45.511Z,100050.53
2023-04-20T05:31:13.390Z,100046.25
2023-04-20T05:33:41.364Z,100052.59
2023-04-20T05:36:09.432Z,100052.72
2023-04-20T05:38:37.260Z,100049.13
2023-04-20T05:41:05.366Z,100045.63
2023-04-20T05:43:33.324Z,100053.56
2023-04-20T05:46:01.209Z,100052.81
2023-04-20T05:48:30.137Z,100058.34
2023-04-20T05:50:58.476Z,100057.56
2023-04-20T05:53:26.459Z,100051.50
2023-04-20T05:55:54.075Z,100059.56
2023-04-20T05:58:21.761Z,100060.63
2023-04-20T06:00:49.866Z,100057.84
2023-04-20T06:03:18.076Z,100059.69
2023-04-20T06:05:46.134Z,100055.41
2023-04-20T06:08:13.995Z,100054.56
2023-04-20T06:10:41.658Z,100050.03
2023-04-20T06:13:10.106Z,100050.69
2023-04-20T06:15:37.922Z,100054.16
2023-04-20T06:18:06.046Z,100053.34
2023-04-20T06:20:33.743Z,100046.22
2023-04-20T06:23:01.470Z,100051.31
2023-04-20T06:25:29.550Z,100042.22
2023-04-20T06:27:57.215Z,100048.09
2023-04-20T06:30:24.942Z,100041.63
2023-04-20T06:32:52.705Z,100037.81
2023-04-20T06:35:20.727Z,100032.31
2023-04-20T06:37:48.798Z,100036.78
2023-04-20T06:40:16.550Z,100031.34
2023-04-20T06:42:44.382Z,100028.53
2023-04-20T06:45:12.097Z,100033.81
2023-04-20T06:47:39.802Z,100033.59
2023-04-20T06:50:10.212Z,100028.09
2023-04-20T06:52:38.015Z,100037.47
2023-04-20T06:55:05.931Z,100025.91
2023-04-20T06:57:33.953Z,100024.94
2023-04-20T07:00:01.761Z,100020.28
2023-04-20T07:02:30.141Z,100015.00
2023-04-20T07:04:58.024Z,100012.88
2023-04-20T07:07:25.933Z,100018.94
2023-04-20T07:09:53.686Z,100018.63
2023-04-20T07:12:21.292Z,100014.91
2023-04-20T07:14:49.555Z,100015.00
2023-04-20T07:17:17.292Z,100013.22
2023-04-20T07:19:46.299Z,100013.09
2023-04-20T07:22:14.013Z,100015.00
2023-04-20T07:24:41.773Z,100002.81
2023-04-20T07:27:09.996Z,100003.56
2023-04-20T07:29:37.747Z,100011.41
2023-04-20T07:32:05.580Z,100012.25
2023-04-20T07:34:33.231Z,100007.91
2023-04-20T07:37:00.973Z,100006.22
2023-04-20T07:39:30.795Z,100008.75
2023-04-20T07:41:59.055Z,100009.38
2023-04-20T07:44:27.121Z,100005.38
2023-04-20T07:46:57.773Z,100011.09
2023-04-20T07:49:25.893Z,100008.16
2023-04-20T07:51:56.895Z,100014.19
2023-04-20T07:54:32.424Z,100014.59
2023-04-20T07:57:00.272Z,100012.38
2023-04-20T07:59:27.986Z,100012.69
2023-04-20T08:01:57.333Z,100017.34
2023-04-20T08:04:25.375Z,100019.47
2023-04-20T08:06:53.541Z,100012.88
2023-04-20T08:09:21.730Z,100018.38
2023-04-20T08:11:49.752Z,100014.03
2023-04-20T08:14:18.152Z,100016.69
2023-04-20T08:16:46.267Z,100023.91
2023-04-20T08:21:42.928Z,100009.69
2023-04-20T08:24:11.122Z,100010.59
2023-04-20T08:26:39.587Z,100005.19
2023-04-20T08:29:07.374Z,99993.56
2023-04-20T08:31:35.590Z,99993.41
2023-04-20T08:34:03.673Z,99990.69
2023-04-20T08:36:32.459Z,99987.16
2023-04-20T08:39:00.308Z,99976.97
2023-04-20T08:41:28.226Z,99981.69
2023-04-20T08:43:56.279Z,99987.75
2023-04-20T08:46:24.446Z,99986.28
2023-04-20T08:48:52.203Z,99996.34
2023-04-20T08:51:20.198Z,99992.03
2023-04-20T08:53:47.902Z,99989.50
2023-04-20T08:56:15.821Z,99991.50
2023-04-20T08:58:43.514Z,99993.22
2023-04-20T09:01:11.853Z,99981.59
2023-04-20T09:03:41.435Z,99992.75
2023-04-20T09:06:09.156Z,99992.50
2023-04-20T09:08:38.422Z,99996.59
2023-04-20T09:11:06.217Z,99993.75
2023-04-20T09:13:33.986Z,99994.81
2023-04-20T09:16:01.746Z,100004.78
2023-04-20T09:18:29.512Z,100002.94
2023-04-20T09:20:57.576Z,100006.56
2023-04-20T09:23:25.246Z,100004.91
2023-04-20T09:25:53.502Z,100005.34
2023-04-20T09:28:21.554Z,99995.88
2023-04-20T09:30:49.420Z,99996.78
2023-04-20T09:33:19.031Z,99990.63
2023-04-20T09:35:46.782Z,99990.34
2023-04-20T09:38:14.531Z,99980.56
2023-04-20T09:40:42.760Z,99980.38
2023-04-20T09:43:10.594Z,99980.25
2023-04-20T09:45:38.597Z,99976.47
2023-04-20T09:48:06.812Z,99971.47
2023-04-20T09:50:45.654Z,99978.88
2023-04-20T09:53:16.591Z,99965.69
2023-04-20T09:55:44.352Z,99968.91
2023-04-20T09:58:12.076Z,99967.16
2023-04-20T10:00:39.898Z,99976.53
2023-04-20T10:03:09.394Z,99985.69
2023-04-20T10:05:40.046Z,99977.25
2023-04-20T10:08:07.962Z,99984.66
2023-04-20T10:10:36.281Z,99983.09
2023-04-20T10:13:04.197Z,99978.84
2023-04-20T10:15:32.334Z,99974.25
2023-04-20T10:18:00.604Z,99979.22
2023-04-20T10:20:28.679Z,99979.34
2023-04-20T10:22:56.640Z,99979.69
2023-04-20T10:25:24.514Z,99979.41
2023-04-20T10:27:52.285Z,99972.78
2023-04-20T10:30:20.607Z,99978.22
2023-04-20T10:32:48.652Z,99975.09
2023-04-20T10:35:16.637Z,99977.75
2023-04-20T10:37:44.835Z,99971.09
2023-04-20T10:40:12.697Z,99970.81
2023-04-20T10:42:40.830Z,99966.03
2023-04-20T10:45:09.074Z,99967.25
2023-04-20T10:47:38.275Z,99957.94
2023-04-20T10:50:06.783Z,99965.44
2023-04-20T10:52:35.458Z,99961.53
2023-04-20T10:55:04.043Z,99959.00
2023-04-20T10:57:32.371Z,99970.34
2023-04-20T11:00:00.333Z,99958.56
2023-04-20T11:02:28.584Z,99951.38
2023-04-20T11:05:01.277Z,99954.16
2023-04-20T11:07:29.872Z,99965.31
2023-04-20T11:09:58.199Z,99947.88
2023-04-20T11:12:26.194Z,99957.13
2023-04-20T11:14:54.100Z,99947.25
2023-04-20T11:17:22.394Z,99953.78
2023-04-20T11:19:52.436Z,99950.66
2023-04-20T11:22:20.313Z,99947.66
2023-04-20T11:24:48.283Z,99946.72
2023-04-20T11:27:16.297Z,99946.09
2023-04-20T11:29:44.121Z,99951.84
2023-04-20T11:32:12.413Z,99964.25
2023-04-20T11:34:40.692Z,99943.09
2023-04-20T11:37:08.686Z,99941.63
2023-04-20T11:39:37.103Z,99921.94
2023-04-20T11:42:05.166Z,99923.91
2023-04-20T11:44:33.519Z,99914.19
2023-04-20T11:47:02.158Z,99912.66
2023-04-20T11:49:30.082Z,99918.75
2023-04-20T11:51:58.133Z,99920.63
2023-04-20T11:54:27.448Z,99921.88
2023-04-20T11:56:55.840Z,99917.88
2023-04-20T11:59:23.958Z,99924.25
2023-04-20T12:01:52.867Z,99924.38
2023-04-20T12:04:21.230Z,99934.00
2023-04-20T12:06:49.315Z,99928.84
2023-04-20T12:09:17.921Z,99943.31
2023-04-20T12:11:46.553Z,99930.19
2023-04-20T12:14:14.369Z,99925.78
2023-04-20T12:16:42.108Z,99926.31
2023-04-20T12:19:10.064Z,99928.47
2023-04-20T12:21:38.716Z,99927.53
2023-04-20T12:24:07.157Z,99938.38
2023-04-20T12:26:38.772Z,99941.06
2023-04-20T12:29:07.454Z,99939.31
2023-04-20T12:31:35.961Z,99936.25
2023-04-20T12:34:04.353Z,99936.22
2023-04-20T12:36:35.255Z,99928.25
2023-04-20T12:39:03.909Z,99927.72
2023-04-20T12:41:31.655Z,99925.34
2023-04-20T12:43:59.689Z,99932.88
2023-04-20T12:46:27.885Z,99938.44
2023-04-20T12:48:56.491Z,99942.94
2023-04-20T12:51:24.358Z,99948.88
2023-04-20T12:53:52.259Z,99944.81
2023-04-20T12:56:20.292Z,99949.97
2023-04-20T12:58:48.775Z,99954.88
2023-04-20T13:01:16.847Z,99953.22
2023-04-20T13:03:45.210Z,99958.59
2023-04-20T13:06:14.510Z,99951.41
2023-04-20T13:08:42.542Z,99951.06
2023-04-20T13:11:12.744Z,99941.78
2023-04-20T13:13:40.910Z,99934.09
2023-04-20T13:16:08.743Z,99921.66
2023-04-20T13:18:36.754Z,99921.28
2023-04-20T13:21:04.537Z,99917.31
2023-04-20T13:23:32.698Z,99915.75
2023-04-20T13:26:02.341Z,99915.78
2023-04-20T13:28:30.138Z,99901.91
2023-04-20T13:30:58.377Z,99903.72
2023-04-20T13:33:26.283Z,99911.09
2023-04-20T13:35:54.645Z,99920.41
2023-04-20T13:38:22.811Z,99915.13
2023-04-20T13:40:51.145Z,99911.63
2023-04-20T13:43:21.341Z,99914.88
2023-04-20T13:45:49.542Z,99909.00
2023-04-20T13:48:18.713Z,99908.88
2023-04-20T13:50:47.743Z,99915.50
2023-04-20T13:53:15.620Z,99909.16
2023-04-20T13:55:43.779Z,99918.03
2023-04-20T13:58:11.588Z,99905.56
2023-04-20T14:00:39.866Z,99916.22
2023-04-20T14:03:08.595Z,99912.81
2023-04-20T14:05:36.615Z,99910.38
2023-04-20T14:08:04.569Z,99901.13
2023-04-20T14:10:33.087Z,99893.44
2023-04-20T14:13:02.243Z,99883.25
2023-04-20T14:15:30.210Z,99886.91
2023-04-20T14:17:58.624Z,99881.44
2023-04-20T14:20:26.447Z,99891.88
2023-04-20T14:22:54.329Z,99892.22
2023-04-20T14:25:22.804Z,99892.59
2023-04-20T14:27:50.807Z,99891.63
2023-04-20T14:30:18.591Z,99893.63
2023-04-20T14:32:46.791Z,99884.63
2023-04-20T14:35:14.671Z,99891.28
2023-04-20T14:37:43.084Z,99884.53
2023-04-20T14:40:11.119Z,99884.13
2023-04-20T14:42:38.888Z,99884.78
2023-04-20T14:45:06.962Z,99884.06
2023-04-20T14:47:35.040Z,99871.19
2023-04-20T14:50:03.266Z,99870.88
2023-04-20T14:52:31.477Z,99862.28
2023-04-20T14:54:59.953Z,99855.75
2023-04-20T14:57:27.992Z,99860.09
2023-04-20T14:59:55.799Z,99864.41
2023-04-20T15:02:24.386Z,99860.09
2023-04-20T15:04:52.844Z,99857.47
2023-04-20T15:07:21.009Z,99853.00
2023-04-20T15:09:48.987Z,99855.53
2023-04-20T15:12:16.822Z,99857.94
2023-04-20T15:14:45.462Z,99860.03
2023-04-20T15:17:15.389Z,99848.59
2023-04-20T15:19:46.329Z,99843.59
2023-04-20T15:22:14.161Z,99833.59
2023-04-20T15:24:42.077Z,99832.13
2023-04-20T15:27:10.652Z,99829.97
2023-04-20T15:29:38.771Z,99830.50
2023-04-20T15:32:06.754Z,99821.47
2023-04-20T15:34:34.560Z,99817.78
2023-04-20T15:37:02.459Z,99806.59
2023-04-20T15:39:31.625Z,99791.34
2023-04-20T15:42:00.211Z,99784.75
2023-04-20T15:44:28.096Z,99786.94
2023-04-20T15:46:56.245Z,99788.53
2023-04-20T15:49:24.134Z,99794.31
2023-04-20T15:51:52.377Z,99802.50
2023-04-20T15:54:24.070Z,99800.50
2023-04-20T15:56:52.266Z,99806.03
2023-04-20T15:59:20.179Z,99811.41
2023-04-20T16:01:48.250Z,99804.22
2023-04-20T16:04:17.898Z,99805.41
2023-04-20T16:06:46.249Z,99813.16
2023-04-20T16:09:14.307Z,99812.91
2023-04-20T16:11:42.085Z,99827.63
2023-04-20T16:14:09.901Z,99829.59
2023-04-20T16:16:38.508Z,99829.06
2023-04-20T16:19:06.788Z,99837.63
2023-04-20T16:21:35.110Z,99843.16
2023-04-20T16:24:03.086Z,99845.13
2023-04-20T16:26:31.009Z,99852.09
2023-04-20T16:28:59.442Z,99856.53
2023-04-20T16:31:27.717Z,99874.16
2023-04-20T16:33:55.668Z,99877.13
2023-04-20T16:36:23.481Z,99885.19
2023-04-20T16:38:51.329Z,99898.38
2023-04-20T16:41:19.621Z,99893.59
2023-04-20T16:43:49.001Z,99893.19
2023-04-20T16:46:19.385Z,99897.25
2023-04-20T16:48:47.408Z,99902.63
2023-04-20T16:51:15.379Z,99909.09
2023-04-20T16:53:43.763Z,99914.81
2023-04-20T16:56:12.326Z,99916.16
2023-04-20T16:58:40.246Z,99907.47
2023-04-20T17:01:08.306Z,99919.81
2023-04-20T17:03:36.442Z,99917.66
2023-04-20T17:06:08.065Z,99924.28
2023-04-20T17:08:37.760Z,99926.47
2023-04-20T17:11:05.670Z,99914.59
2023-04-20T17:13:33.566Z,99907.81
2023-04-20T17:16:01.616Z,99906.38
2023-04-20T17:18:29.887Z,99909.16
2023-04-20T17:20:58.849Z,99906.56
2023-04-20T17:23:26.801Z,99903.91
2023-04-20T17:25:54.971Z,99900.41
2023-04-20T17:28:23.167Z,99904.88
2023-04-20T17:30:51.117Z,99919.03
2023-04-20T17:33:18.876Z,99920.84
2023-04-20T17:35:46.788Z,99917.47
2023-04-20T17:38:14.947Z,99917.69
2023-04-20T17:40:42.720Z,99920.59
2023-04-20T17:43:12.212Z,99925.19
2023-04-20T17:45:40.712Z,99918.28
2023-04-20T17:48:09.130Z,99911.38
2023-04-20T17:50:37.462Z,99921.19
2023-04-20T17:53:07.189Z,99916.97
2023-04-20T17:55:35.946Z,99906.44
2023-04-20T17:58:04.422Z,99903.16
2023-04-20T18:00:32.308Z,99901.56
2023-04-20T18:03:00.454Z,99899.06
2023-04-20T18:05:28.468Z,99898.31
2023-04-20T18:07:57.199Z,99894.06
2023-04-20T18:10:25.189Z,99896.00
2023-04-20T18:12:53.989Z,99899.63
2023-04-20T18:15:22.013Z,99897.06
2023-04-20T18:17:49.850Z,99903.38
2023-04-20T18:20:20.027Z,99907.97
2023-04-20T18:22:50.640Z,99903.50
2023-04-20T18:25:19.568Z,99902.63
2023-04-20T18:27:47.544Z,99891.16
2023-04-20T18:30:15.528Z,99892.13
2023-04-20T18:32:44.038Z,99889.44
2023-04-20T18:35:13.788Z,99887.75
2023-04-20T18:37:41.770Z,99882.44
2023-04-20T18:40:09.679Z,99888.72
2023-04-20T18:42:37.670Z,99885.22
2023-04-20T18:45:06.753Z,99887.03
2023-04-20T18:47:34.865Z,99878.22
2023-04-20T18:50:02.872Z,99883.53
2023-04-20T18:52:30.819Z,99883.78
2023-04-20T18:54:58.586Z,99890.78
2023-04-20T18:57:29.386Z,99888.22
2023-04-20T18:59:57.587Z,99887.41
2023-04-20T19:02:25.654Z,99881.38
2023-04-20T19:04:53.611Z,99884.03
2023-04-20T19:07:21.521Z,99885.81
2023-04-20T19:09:49.938Z,99884.03
2023-04-20T19:12:17.810Z,99881.47
2023-04-20T19:14:47.065Z,99881.47
2023-04-20T19:17:16.860Z,99882.28
2023-04-20T19:19:45.195Z,99884.94
2023-04-20T19:22:13.444Z,99885.09
2023-04-20T19:24:41.467Z,99878.91
2023-04-20T19:27:09.467Z,99886.88
2023-04-20T19:29:37.392Z,99878.09
2023-04-20T19:32:05.226Z,99894.97
2023-04-20T19:34:33.443Z,99893.19
2023-04-20T19:37:02.037Z,99888.81
2023-04-20T19:39:30.389Z,99890.53
2023-04-20T19:41:59.133Z,99887.84
2023-04-20T19:44:28.369Z,99888.81
2023-04-20T19:46:56.167Z,99874.69
2023-04-20T19:49:24.008Z,99880.00
2023-04-20T19:51:52.017Z,99876.63
2023-04-20T19:54:19.882Z,99874.81
2023-04-20T19:56:47.811Z,99863.22
2023-04-20T19:59:16.591Z,99859.81
2023-04-20T20:01:44.859Z,99855.34
2023-04-20T20:04:13.240Z,99861.53
2023-04-20T20:06:41.400Z,99865.97
2023-04-20T20:09:09.471Z,99866.84
2023-04-20T20:11:37.547Z,99872.97
2023-04-20T20:14:05.912Z,99866.69
2023-04-20T20:16:34.568Z,99861.53
2023-04-20T20:19:02.521Z,99867.66
2023-04-20T20:21:30.398Z,99865.97
2023-04-20T20:23:58.691Z,99873.97
2023-04-20T20:26:28.797Z,99866.94
2023-04-20T20:28:57.046Z,99861.63
2023-04-20T20:31:24.944Z,99852.81
2023-04-20T20:33:52.940Z,99844.81
2023-04-20T20:36:21.286Z,99844.81
2023-04-20T20:38:49.532Z,99844.00
2023-04-20T20:41:18.553Z,99837.09
2023-04-20T20:43:46.556Z,99835.28
2023-04-20T20:46:14.367Z,99827.31
2023-04-20T20:48:42.923Z,99826.59
2023-04-20T20:51:11.747Z,99840.94
2023-04-20T20:53:39.610Z,99839.25
2023-04-20T20:56:07.542Z,99843.75
2023-04-20T20:58:35.591Z,99846.41
2023-04-20T21:01:03.843Z,99845.44
2023-04-20T21:03:32.156Z,99852.44
2023-04-20T21:06:00.326Z,99837.34
2023-04-20T21:08:28.066Z,99829.38
2023-04-20T21:10:56.484Z,99822.34
2023-04-20T21:13:24.913Z,99824.16
2023-04-20T21:15:52.947Z,99809.19
2023-04-20T21:18:21.002Z,99804.00
2023-04-20T21:20:48.885Z,99814.63
2023-04-20T21:23:16.629Z,99820.78
2023-04-20T21:25:44.730Z,99823.44
2023-04-20T21:28:12.992Z,99815.47
2023-04-20T21:30:40.751Z,99810.28
2023-04-20T21:33:08.649Z,99815.59
2023-04-20T21:35:37.088Z,99815.59
2023-04-20T21:38:05.607Z,99811.97
2023-04-20T21:40:34.608Z,99801.34
2023-04-20T21:43:02.527Z,99802.19
2023-04-20T21:45:30.270Z,99791.41
2023-04-20T21:47:58.151Z,99789.72
2023-04-20T21:50:27.965Z,99793.38
2023-04-20T21:52:55.707Z,99787.06
2023-04-20T21:55:23.799Z,99790.59
2023-04-20T21:57:51.684Z,99784.22
2023-04-20T22:00:20.069Z,99789.53
2023-04-20T22:02:50.249Z,99785.03
2023-04-20T22:05:18.567Z,99795.56
2023-04-20T22:07:46.920Z,99794.59
2023-04-20T22:10:14.586Z,99790.09
2023-04-20T22:12:42.548Z,99788.31
2023-04-20T22:15:10.872Z,99788.31
2023-04-20T22:17:39.904Z,99777.66
2023-04-20T22:20:09.461Z,99787.34
2023-04-20T22:22:37.249Z,99787.34
2023-04-20T22:25:04.914Z,99779.59
2023-04-20T22:27:32.983Z,99783.97
2023-04-20T22:30:00.660Z,99785.03
2023-04-20T22:32:28.369Z,99780.78
2023-04-20T22:34:56.116Z,99779.97
2023-04-20T22:37:23.780Z,99779.34
2023-04-20T22:39:51.747Z,99772.34
2023-04-20T22:42:19.509Z,99767.25
2023-04-20T22:44:47.214Z,99763.03
2023-04-20T22:47:14.848Z,99761.59
2023-04-20T22:49:42.812Z,99753.72
2023-04-20T22:52:11.454Z,99758.41
2023-04-20T22:54:39.117Z,99751.53
2023-04-20T22:57:06.882Z,99753.56
2023-04-20T22:59:34.534Z,99752.03
2023-04-20T23:02:02.345Z,99754.78
2023-04-20T23:04:31.926Z,99742.59
2023-04-20T23:06:59.777Z,99736.41
2023-04-20T23:09:27.430Z,99748.88
2023-04-20T23:11:55.165Z,99739.22
2023-04-20T23:14:22.854Z,99742.06
2023-04-20T23:16:51.082Z,99735.22
2023-04-20T23:19:19.078Z,99737.00
2023-04-20T23:21:46.866Z,99740.53
2023-04-20T23:24:14.967Z,99737.97
2023-04-20T23:26:43.023Z,99739.78
2023-04-20T23:29:11.012Z,99735.44
2023-04-20T23:31:38.709Z,99746.91
2023-04-20T23:34:06.446Z,99738.19
2023-04-20T23:36:34.099Z,99732.88
2023-04-20T23:39:01.706Z,99731.94
2023-04-20T23:41:29.722Z,99732.88
2023-04-20T23:43:57.530Z,99731.94
2023-04-20T23:46:25.730Z,99728.31
2023-04-20T23:48:55.610Z,99733.50
2023-04-20T23:51:23.299Z,99726.38
2023-04-20T23:53:51.576Z,99723.75
2023-04-20T23:56:19.295Z,99728.06
2023-04-20T23:58:46.962Z,99720.13
